^^
Meteo Knjazevac Station Historical Data
Daily Summary for August 24, 2021 Units:  Both    English   Metric
Daily Weekly Monthly Yearly Custom
  High: Low: Average:
Temperature: 46.9 °F /  8.3 °C 45 °F /  7.2 °C 46.1 °F /  7.8 °C
Dew Point: 46.5 °F /  8.1 °C 43.3 °F /  6.3 °C 45.4 °F /  7.4 °C
Humidity: 99% 94% 97%
Wind Speed: 3mph /  4.8km/h - 1.6mph /  2.6km/h
Wind Gust: 6mph /  9.7km/h - -
Wind- - SW
Pressure: 30.42 in /  1030 hPa 30.39 in /  1029 hPa -
Precipitation: 0.00 in /  0 mm    
Historical Graphs
 
 
Tabular Data for August 24, 2021
Time Temperature Dew Point Pressure Wind Wind Speed Wind Gust Humidity Rainfall Rate (Hourly) solar Conditions
00:00 46.9 °F /  8.3 °C 46.4 °F /  8 °C 30.39in /  1029hPa ENE 1mph /  1.6km/h 4mph /  6.4km/h 98% 0.00in /  0mm 0 W/m2
00:10 46.8 °F /  8.2 °C 46.5 °F /  8.1 °C 30.39in /  1029hPa WSW 1mph /  1.6km/h 4mph /  6.4km/h 99% 0.00in /  0mm 0 W/m2
00:20 46.8 °F /  8.2 °C 46.5 °F /  8.1 °C 30.39in /  1029hPa West 1mph /  1.6km/h 2mph /  3.2km/h 99% 0.00in /  0mm 0 W/m2
00:30 46.8 °F /  8.2 °C 46.2 °F /  7.9 °C 30.39in /  1029hPa Calm   2mph /  3.2km/h 98% 0.00in /  0mm 0 W/m2
00:40 46.9 °F /  8.3 °C 46.4 °F /  8 °C 30.40in /  1029.3hPa SSW 1mph /  1.6km/h 3mph /  4.8km/h 98% 0.00in /  0mm 0 W/m2
00:50 46.9 °F /  8.3 °C 46.4 °F /  8 °C 30.40in /  1029.3hPa WSW 1mph /  1.6km/h 2mph /  3.2km/h 98% 0.00in /  0mm 0 W/m2
01:00 46.8 °F /  8.2 °C 46.5 °F /  8.1 °C 30.40in /  1029.3hPa SW 2mph /  3.2km/h 3mph /  4.8km/h 99% 0.00in /  0mm 0 W/m2
01:10 46.8 °F /  8.2 °C 46.2 °F /  7.9 °C 30.40in /  1029.3hPa WSW 2mph /  3.2km/h 5mph /  8km/h 98% 0.00in /  0mm 0 W/m2
01:20 46.6 °F /  8.1 °C 46 °F /  7.8 °C 30.40in /  1029.3hPa SW 3mph /  4.8km/h 5mph /  8km/h 98% 0.00in /  0mm 0 W/m2
01:30 46.6 °F /  8.1 °C 46 °F /  7.8 °C 30.40in /  1029.3hPa WSW 2mph /  3.2km/h 5mph /  8km/h 98% 0.00in /  0mm 0 W/m2
01:40 46.6 °F /  8.1 °C 46 °F /  7.8 °C 30.41in /  1029.7hPa WSW 1mph /  1.6km/h 4mph /  6.4km/h 98% 0.00in /  0mm 0 W/m2
01:50 46.6 °F /  8.1 °C 46 °F /  7.8 °C 30.41in /  1029.7hPa West 1mph /  1.6km/h 2mph /  3.2km/h 98% 0.00in /  0mm 0 W/m2
02:00 46.4 °F /  8 °C 45.9 °F /  7.7 °C 30.41in /  1029.7hPa WSW 1mph /  1.6km/h 4mph /  6.4km/h 98% 0.00in /  0mm 0 W/m2
02:10 46.4 °F /  8 °C 45.9 °F /  7.7 °C 30.41in /  1029.7hPa WSW 2mph /  3.2km/h 4mph /  6.4km/h 98% 0.00in /  0mm 0 W/m2
02:20 46.2 °F /  7.9 °C 45.7 °F /  7.6 °C 30.41in /  1029.7hPa WSW 2mph /  3.2km/h 4mph /  6.4km/h 98% 0.00in /  0mm 0 W/m2
02:30 46.2 °F /  7.9 °C 45.1 °F /  7.3 °C 30.41in /  1029.7hPa SW 2mph /  3.2km/h 6mph /  9.7km/h 96% 0.00in /  0mm 0 W/m2
02:40 46 °F /  7.8 °C 45 °F /  7.2 °C 30.41in /  1029.7hPa SSW 2mph /  3.2km/h 3mph /  4.8km/h 96% 0.00in /  0mm 0 W/m2
02:50 46 °F /  7.8 °C 45.5 °F /  7.5 °C 30.41in /  1029.7hPa SW 3mph /  4.8km/h 5mph /  8km/h 98% 0.00in /  0mm 0 W/m2
03:00 45.9 °F /  7.7 °C 45.3 °F /  7.4 °C 30.41in /  1029.7hPa SW 2mph /  3.2km/h 5mph /  8km/h 98% 0.00in /  0mm 0 W/m2
03:10 45.7 °F /  7.6 °C 45.1 °F /  7.3 °C 30.41in /  1029.7hPa South 1mph /  1.6km/h 5mph /  8km/h 98% 0.00in /  0mm 0 W/m2
03:20 45.7 °F /  7.6 °C 45.1 °F /  7.3 °C 30.41in /  1029.7hPa SW 1mph /  1.6km/h 4mph /  6.4km/h 98% 0.00in /  0mm 0 W/m2
03:30 45.5 °F /  7.5 °C 45 °F /  7.2 °C 30.41in /  1029.7hPa SW 2mph /  3.2km/h 4mph /  6.4km/h 98% 0.00in /  0mm 0 W/m2
03:40 45.5 °F /  7.5 °C 44.4 °F /  6.9 °C 30.41in /  1029.7hPa SW 1mph /  1.6km/h 3mph /  4.8km/h 96% 0.00in /  0mm 0 W/m2
03:50 45.5 °F /  7.5 °C 44.4 °F /  6.9 °C 30.41in /  1029.7hPa SW 3mph /  4.8km/h 5mph /  8km/h 96% 0.00in /  0mm 0 W/m2
04:00 45.5 °F /  7.5 °C 44.4 °F /  6.9 °C 30.41in /  1029.7hPa SW 2mph /  3.2km/h 6mph /  9.7km/h 96% 0.00in /  0mm 0 W/m2
04:10 45.5 °F /  7.5 °C 44.2 °F /  6.8 °C 30.41in /  1029.7hPa WSW 3mph /  4.8km/h 6mph /  9.7km/h 95% 0.00in /  0mm 0 W/m2
04:20 45.5 °F /  7.5 °C 43.9 °F /  6.6 °C 30.42in /  1030hPa WSW 2mph /  3.2km/h 6mph /  9.7km/h 94% 0.00in /  0mm 0 W/m2
04:30 45.3 °F /  7.4 °C 44 °F /  6.7 °C 30.42in /  1030hPa NW 1mph /  1.6km/h 3mph /  4.8km/h 95% 0.00in /  0mm 0 W/m2
04:40 45.1 °F /  7.3 °C 43.5 °F /  6.4 °C 30.42in /  1030hPa WSW 2mph /  3.2km/h 5mph /  8km/h 94% 0.00in /  0mm 0 W/m2
04:50 45 °F /  7.2 °C 43.3 °F /  6.3 °C 30.42in /  1030hPa WSW 1mph /  1.6km/h 5mph /  8km/h 94% 0.00in /  0mm 0 W/m2
Knjazevac, Serbia
Compliments of Weather Underground - 2 mb